Time;durP1;ratioP1;P1;durP2;ratioP2;P2;SDS_P1;SDS_P2;PMS_P1;PMS_P2;Temp;Humidity;BMP_temperature;BMP_pressure;BME280_temperature;BME280_humidity;BME280_pressure;Samples;Min_cycle;Max_cycle;Signal;HPM_P1;HPM_P2
2021/07/19 00:00:26;;;;;;;17.80;16.10;;;;;;;;;;6164363;23;20413;-94
2021/07/19 00:02:54;;;;;;;18.03;16.37;;;;;;;;;;6164401;23;20440;-93
2021/07/19 00:05:22;;;;;;;17.40;15.70;;;;;;;;;;6164958;23;20452;-95
2021/07/19 00:07:48;;;;;;;18.50;16.70;;;;;;;;;;6165828;23;20409;-93
2021/07/19 00:10:15;;;;;;;16.90;15.20;;;;;;;;;;6166127;23;20429;-93
2021/07/19 00:12:42;;;;;;;19.30;15.70;;;;;;;;;;6167586;23;20416;-93
2021/07/19 00:15:11;;;;;;;17.73;15.90;;;;;;;;;;6167091;23;20447;-93
2021/07/19 00:17:38;;;;;;;17.70;16.00;;;;;;;;;;6166881;23;20981;-93
2021/07/19 00:20:07;;;;;;;16.93;15.30;;;;;;;;;;6167499;23;20413;-94
2021/07/19 00:22:34;;;;;;;17.97;15.97;;;;;;;;;;6166708;23;20409;-93
2021/07/19 00:25:00;;;;;;;19.70;17.70;;;;;;;;;;6165422;23;20478;-93
2021/07/19 00:27:27;;;;;;;18.80;16.90;;;;;;;;;;6167016;23;20412;-92
2021/07/19 00:29:53;;;;;;;18.10;15.37;;;;;;;;;;6167146;23;20436;-93
2021/07/19 00:32:20;;;;;;;16.50;14.80;;;;;;;;;;6166657;23;20420;-93
2021/07/19 00:34:46;;;;;;;17.40;15.80;;;;;;;;;;6166733;23;20408;-93
2021/07/19 00:37:14;;;;;;;17.87;16.17;;;;;;;;;;6165609;23;20439;-92
2021/07/19 00:39:41;;;;;;;18.13;16.40;;;;;;;;;;6165261;23;20424;-93
2021/07/19 00:42:07;;;;;;;17.70;15.90;;;;;;;;;;6165306;23;20408;-93
2021/07/19 00:44:34;;;;;;;17.10;15.50;;;;;;;;;;6165889;23;20408;-93
2021/07/19 00:47:01;;;;;;;19.47;17.47;;;;;;;;;;6170834;23;20416;-92
2021/07/19 00:49:30;;;;;;;18.33;16.73;;;;;;;;;;6166461;23;20444;-94
2021/07/19 00:51:57;;;;;;;17.43;15.63;;;;;;;;;;6166885;23;20413;-93
2021/07/19 00:54:25;;;;;;;19.40;15.63;;;;;;;;;;6166856;23;20412;-93
2021/07/19 00:56:55;;;;;;;17.67;15.37;;;;;;;;;;6167603;23;20408;-93
2021/07/19 00:59:23;;;;;;;17.27;15.47;;;;;;;;;;6168754;23;20420;-92
2021/07/19 01:01:51;;;;;;;17.63;15.77;;;;;;;;;;6167677;23;20420;-93
2021/07/19 01:04:19;;;;;;;16.00;14.40;;;;;;;;;;6167333;23;20416;-92
2021/07/19 01:06:47;;;;;;;15.43;13.90;;;;;;;;;;6167881;23;20456;-93
2021/07/19 01:09:14;;;;;;;16.00;14.30;;;;;;;;;;6167742;23;20404;-93
2021/07/19 01:11:42;;;;;;;16.97;15.07;;;;;;;;;;6167747;23;20442;-93
2021/07/19 01:14:08;;;;;;;15.37;13.90;;;;;;;;;;6165893;23;20411;-93
2021/07/19 01:16:35;;;;;;;20.73;15.30;;;;;;;;;;6166281;23;20467;-93
2021/07/19 01:19:01;;;;;;;16.77;15.17;;;;;;;;;;6167342;23;20421;-94
2021/07/19 01:21:46;;;;;;;17.93;15.27;;;;;;;;;;6167854;23;20907;-93
2021/07/19 01:24:27;;;;;;;15.47;14.17;;;;;;;;;;6168221;23;20494;-93
2021/07/19 01:27:21;;;;;;;19.00;14.93;;;;;;;;;;6164163;23;20487;-95
2021/07/19 01:29:50;;;;;;;18.93;15.90;;;;;;;;;;6097738;23;20413;-93
2021/07/19 01:32:17;;;;;;;19.33;16.10;;;;;;;;;;6167740;23;20474;-93
2021/07/19 01:34:43;;;;;;;18.07;16.17;;;;;;;;;;6167694;23;20419;-93
2021/07/19 01:37:10;;;;;;;24.17;15.87;;;;;;;;;;6168192;23;20421;-94
2021/07/19 01:39:38;;;;;;;19.60;16.73;;;;;;;;;;6167545;23;20415;-93
2021/07/19 01:42:05;;;;;;;24.27;16.93;;;;;;;;;;6168397;23;20447;-94
2021/07/19 01:44:32;;;;;;;20.67;16.77;;;;;;;;;;6168716;23;20791;-94
2021/07/19 01:47:00;;;;;;;20.57;17.80;;;;;;;;;;6167648;23;20483;-95
2021/07/19 01:49:28;;;;;;;19.60;16.83;;;;;;;;;;6167061;23;20439;-93
2021/07/19 01:51:55;;;;;;;19.40;15.43;;;;;;;;;;6168227;23;20460;-94
2021/07/19 01:54:22;;;;;;;16.90;15.30;;;;;;;;;;6168148;23;20412;-94
2021/07/19 01:56:50;;;;;;;21.13;16.50;;;;;;;;;;6167273;23;20416;-94
2021/07/19 01:59:17;;;;;;;17.83;16.10;;;;;;;;;;6166799;23;20415;-94
2021/07/19 02:01:43;;;;;;;18.50;16.60;;;;;;;;;;6166452;23;20431;-94
2021/07/19 02:04:11;;;;;;;18.70;17.03;;;;;;;;;;6166350;23;20409;-94
2021/07/19 02:06:39;;;;;;;17.60;15.87;;;;;;;;;;6167094;23;20456;-93
2021/07/19 02:09:09;;;;;;;18.07;16.20;;;;;;;;;;6166779;23;20409;-93
2021/07/19 02:11:36;;;;;;;18.63;16.67;;;;;;;;;;6167456;23;20491;-94
2021/07/19 02:14:04;;;;;;;17.10;15.07;;;;;;;;;;6166989;23;20412;-94
2021/07/19 02:16:31;;;;;;;18.07;15.27;;;;;;;;;;6167056;23;20895;-93
2021/07/19 02:18:58;;;;;;;17.93;16.13;;;;;;;;;;6168592;23;20439;-93
2021/07/19 02:21:26;;;;;;;19.97;17.77;;;;;;;;;;6167787;23;20976;-93
2021/07/19 02:23:53;;;;;;;19.80;16.57;;;;;;;;;;6168550;23;20428;-94
2021/07/19 02:26:20;;;;;;;17.57;15.70;;;;;;;;;;6170768;23;20452;-93
2021/07/19 02:28:48;;;;;;;18.07;16.13;;;;;;;;;;6168446;23;20413;-94
2021/07/19 02:31:15;;;;;;;18.03;16.23;;;;;;;;;;6168023;23;20412;-93
2021/07/19 02:33:42;;;;;;;19.10;17.07;;;;;;;;;;6166545;23;20427;-93
2021/07/19 02:36:10;;;;;;;17.07;15.33;;;;;;;;;;6167068;23;20470;-95
2021/07/19 02:38:38;;;;;;;17.53;14.20;;;;;;;;;;6167155;23;20440;-94
2021/07/19 02:41:05;;;;;;;17.70;15.80;;;;;;;;;;6167043;23;20444;-94
2021/07/19 02:43:32;;;;;;;18.10;16.30;;;;;;;;;;6166756;23;20407;-94
2021/07/19 02:45:59;;;;;;;19.87;16.10;;;;;;;;;;6166805;23;20448;-94
2021/07/19 02:48:28;;;;;;;18.27;16.30;;;;;;;;;;6166457;23;20474;-94
2021/07/19 02:50:56;;;;;;;18.23;15.77;;;;;;;;;;6167183;23;20431;-93
2021/07/19 02:53:23;;;;;;;17.93;14.30;;;;;;;;;;6167831;23;20449;-94
2021/07/19 02:55:52;;;;;;;14.47;13.03;;;;;;;;;;6167761;23;20477;-94
2021/07/19 02:58:19;;;;;;;19.47;14.97;;;;;;;;;;6166306;23;20412;-94
2021/07/19 03:00:46;;;;;;;19.17;15.93;;;;;;;;;;6165649;23;20419;-94
2021/07/19 03:03:14;;;;;;;18.70;16.23;;;;;;;;;;6165403;23;20762;-94
2021/07/19 03:05:44;;;;;;;19.43;15.60;;;;;;;;;;6165240;23;20443;-94
2021/07/19 03:08:11;;;;;;;17.93;16.17;;;;;;;;;;6164836;23;20412;-94
2021/07/19 03:10:38;;;;;;;19.37;16.23;;;;;;;;;;6165681;23;20411;-93
2021/07/19 03:13:08;;;;;;;19.63;16.07;;;;;;;;;;6167924;23;20424;-94
2021/07/19 03:15:36;;;;;;;18.20;15.53;;;;;;;;;;6167358;23;20415;-94
2021/07/19 03:18:04;;;;;;;18.37;14.77;;;;;;;;;;6166516;23;20482;-94
2021/07/19 03:20:33;;;;;;;17.10;15.30;;;;;;;;;;6166220;23;20485;-94
2021/07/19 03:23:00;;;;;;;16.70;14.90;;;;;;;;;;6166206;23;20514;-94
2021/07/19 03:25:27;;;;;;;20.63;17.30;;;;;;;;;;6164841;23;20417;-94
2021/07/19 03:27:54;;;;;;;19.07;17.07;;;;;;;;;;6167244;23;20412;-93
2021/07/19 03:30:24;;;;;;;18.73;16.70;;;;;;;;;;6167049;23;20427;-94
2021/07/19 03:32:51;;;;;;;22.17;17.40;;;;;;;;;;6167038;23;20419;-95
2021/07/19 03:35:18;;;;;;;24.07;18.30;;;;;;;;;;6167546;23;20480;-94
2021/07/19 03:37:48;;;;;;;18.47;16.53;;;;;;;;;;6166869;23;20482;-95
2021/07/19 03:40:15;;;;;;;21.80;18.43;;;;;;;;;;6167445;23;20443;-93
2021/07/19 03:42:43;;;;;;;20.10;17.90;;;;;;;;;;6167174;23;20427;-94
2021/07/19 03:45:11;;;;;;;19.07;17.17;;;;;;;;;;6167472;23;20418;-94
2021/07/19 03:47:39;;;;;;;18.93;17.03;;;;;;;;;;6167001;23;20451;-94
2021/07/19 03:50:06;;;;;;;21.40;19.10;;;;;;;;;;6166511;23;20422;-94
2021/07/19 03:52:34;;;;;;;24.10;21.30;;;;;;;;;;6167240;23;20428;-94
2021/07/19 03:55:00;;;;;;;30.57;20.93;;;;;;;;;;6166995;23;20478;-94
2021/07/19 03:57:27;;;;;;;22.73;20.30;;;;;;;;;;6165621;23;20422;-96
2021/07/19 03:59:55;;;;;;;25.37;21.67;;;;;;;;;;6166128;23;20415;-93
2021/07/19 04:02:22;;;;;;;21.00;18.77;;;;;;;;;;6168776;23;20404;-94
2021/07/19 04:05:01;;;;;;;23.60;21.23;;;;;;;;;;6165466;23;20412;-94
2021/07/19 04:07:28;;;;;;;21.23;19.03;;;;;;;;;;6166268;23;20464;-94
2021/07/19 04:09:55;;;;;;;21.50;19.27;;;;;;;;;;6166620;23;20412;-94
2021/07/19 04:12:21;;;;;;;22.70;20.30;;;;;;;;;;6166826;23;20415;-94
2021/07/19 04:14:48;;;;;;;23.33;20.83;;;;;;;;;;6167168;23;20415;-94
2021/07/19 04:17:15;;;;;;;23.43;19.00;;;;;;;;;;6166691;23;20475;-93
2021/07/19 04:19:43;;;;;;;21.43;17.80;;;;;;;;;;6166160;23;20416;-94
2021/07/19 04:22:12;;;;;;;32.70;19.63;;;;;;;;;;6166966;23;20428;-96
2021/07/19 04:24:38;;;;;;;23.80;17.10;;;;;;;;;;6167174;23;20423;-93
2021/07/19 04:27:05;;;;;;;22.17;18.30;;;;;;;;;;6167476;23;20470;-93
2021/07/19 04:29:32;;;;;;;32.37;17.70;;;;;;;;;;6165886;23;20421;-94
2021/07/19 04:31:59;;;;;;;26.63;17.97;;;;;;;;;;6166680;23;20409;-95
2021/07/19 04:34:26;;;;;;;24.63;17.37;;;;;;;;;;6166385;23;20444;-93
2021/07/19 04:36:52;;;;;;;26.07;16.67;;;;;;;;;;6168395;23;20550;-93
2021/07/19 04:39:20;;;;;;;22.23;16.67;;;;;;;;;;6166701;23;20412;-93
2021/07/19 04:41:47;;;;;;;31.23;17.63;;;;;;;;;;6166007;23;20438;-94
2021/07/19 04:44:13;;;;;;;24.87;19.10;;;;;;;;;;6164671;23;20497;-94
2021/07/19 04:46:40;;;;;;;36.73;19.40;;;;;;;;;;6165259;23;20460;-95
2021/07/19 04:49:08;;;;;;;43.73;19.43;;;;;;;;;;6165356;23;20491;-96
2021/07/19 04:51:35;;;;;;;57.10;20.10;;;;;;;;;;6165755;23;20492;-93
2021/07/19 04:54:01;;;;;;;61.57;20.80;;;;;;;;;;6172931;23;20460;-96
2021/07/19 04:56:30;;;;;;;51.07;21.63;;;;;;;;;;6170154;23;20395;-95
2021/07/19 04:58:57;;;;;;;42.23;21.73;;;;;;;;;;6168943;23;20498;-95
2021/07/19 05:01:26;;;;;;;39.30;17.90;;;;;;;;;;6201454;23;20403;-93
2021/07/19 05:03:54;;;;;;;28.63;18.80;;;;;;;;;;6199485;23;20447;-93
2021/07/19 05:06:24;;;;;;;24.23;17.73;;;;;;;;;;6205310;23;20443;-95
2021/07/19 05:08:51;;;;;;;25.93;17.10;;;;;;;;;;6198808;23;20415;-93
2021/07/19 05:11:20;;;;;;;26.03;19.00;;;;;;;;;;6195140;23;20408;-94
2021/07/19 05:13:48;;;;;;;22.90;19.43;;;;;;;;;;6193327;23;20426;-94
2021/07/19 05:16:15;;;;;;;27.97;20.77;;;;;;;;;;6194770;23;20408;-95
2021/07/19 05:18:42;;;;;;;24.97;18.40;;;;;;;;;;6197167;23;20415;-94
2021/07/19 05:21:08;;;;;;;25.47;18.13;;;;;;;;;;6196835;23;20476;-94
2021/07/19 05:23:37;;;;;;;21.93;18.10;;;;;;;;;;6194689;23;20416;-94
2021/07/19 05:26:03;;;;;;;30.67;20.80;;;;;;;;;;6190847;23;20914;-95
2021/07/19 05:28:30;;;;;;;27.93;19.73;;;;;;;;;;6190711;23;20404;-95
2021/07/19 05:30:58;;;;;;;24.40;19.70;;;;;;;;;;6188996;23;20752;-94
2021/07/19 05:33:30;;;;;;;20.90;18.47;;;;;;;;;;6191933;23;20408;-96
2021/07/19 05:35:57;;;;;;;30.77;19.53;;;;;;;;;;6195259;23;20506;-93
2021/07/19 05:38:24;;;;;;;37.17;20.03;;;;;;;;;;6191551;23;20431;-95
2021/07/19 05:40:51;;;;;;;29.30;20.30;;;;;;;;;;6192529;23;20443;-94
2021/07/19 05:43:18;;;;;;;26.17;19.13;;;;;;;;;;6194877;23;20411;-95
2021/07/19 05:45:45;;;;;;;27.07;19.50;;;;;;;;;;6197503;23;20446;-93
2021/07/19 05:48:13;;;;;;;27.33;20.13;;;;;;;;;;6200202;23;20497;-96
2021/07/19 05:50:39;;;;;;;22.73;18.67;;;;;;;;;;6199723;23;20434;-96
2021/07/19 05:53:06;;;;;;;23.83;19.37;;;;;;;;;;6197878;23;20404;-95
2021/07/19 05:55:34;;;;;;;26.20;20.00;;;;;;;;;;6198703;23;20423;-94
2021/07/19 05:58:01;;;;;;;20.50;18.40;;;;;;;;;;6198164;23;20471;-96
2021/07/19 06:00:27;;;;;;;22.43;19.83;;;;;;;;;;6198084;23;20444;-95
2021/07/19 06:02:54;;;;;;;23.10;20.73;;;;;;;;;;6196689;23;20408;-94
2021/07/19 06:11:28;;;;;;;25.07;21.70;;;;;;;;;;6203297;23;20403;-96
2021/07/19 06:13:55;;;;;;;29.37;23.90;;;;;;;;;;6198421;23;20413;-94
2021/07/19 06:16:22;;;;;;;26.80;22.50;;;;;;;;;;6199464;23;21264;-94
2021/07/19 06:18:48;;;;;;;25.53;22.63;;;;;;;;;;6197405;23;20426;-94
2021/07/19 06:21:15;;;;;;;27.63;23.33;;;;;;;;;;6198231;23;20407;-94
2021/07/19 06:23:41;;;;;;;25.07;22.47;;;;;;;;;;6197854;23;20416;-95
2021/07/19 06:26:15;;;;;;;25.80;23.23;;;;;;;;;;6199048;23;20413;-96
2021/07/19 06:31:08;;;;;;;30.70;24.63;;;;;;;;;;6195564;23;20499;-95
2021/07/19 06:33:37;;;;;;;29.53;24.60;;;;;;;;;;6202149;23;20408;-96
2021/07/19 06:36:03;;;;;;;26.67;23.80;;;;;;;;;;6202829;22;20561;-96
2021/07/19 06:41:12;;;;;;;29.07;23.80;;;;;;;;;;6216410;22;20446;-95
2021/07/19 06:43:52;;;;;;;27.40;24.57;;;;;;;;;;6239113;23;20411;-96
2021/07/19 06:49:10;;;;;;;28.77;25.77;;;;;;;;;;6241978;22;20469;-95
2021/07/19 06:51:38;;;;;;;32.33;25.13;;;;;;;;;;6228055;23;20403;-94
2021/07/19 06:54:05;;;;;;;31.77;25.77;;;;;;;;;;6232229;23;20415;-96
2021/07/19 06:56:32;;;;;;;28.53;25.63;;;;;;;;;;6231701;23;20392;-96
2021/07/19 06:59:25;;;;;;;30.93;25.80;;;;;;;;;;6220874;22;20468;-96
2021/07/19 07:01:52;;;;;;;32.10;26.20;;;;;;;;;;6203120;23;20411;-95
2021/07/19 07:04:20;;;;;;;55.63;29.10;;;;;;;;;;6199732;23;20411;-96
2021/07/19 07:06:47;;;;;;;30.10;26.77;;;;;;;;;;6202530;23;20414;-96
2021/07/19 07:09:13;;;;;;;31.30;25.80;;;;;;;;;;6198748;23;20400;-95
2021/07/19 07:11:40;;;;;;;31.80;28.60;;;;;;;;;;6197046;23;20407;-96
2021/07/19 07:14:07;;;;;;;30.37;26.10;;;;;;;;;;6203266;23;20499;-96
2021/07/19 07:16:34;;;;;;;33.50;27.80;;;;;;;;;;6198298;23;20430;-96
2021/07/19 07:19:01;;;;;;;36.03;29.33;;;;;;;;;;6198427;23;20414;-96
2021/07/19 07:21:34;;;;;;;35.03;28.40;;;;;;;;;;6201338;23;20430;-95
2021/07/19 07:24:06;;;;;;;30.87;27.37;;;;;;;;;;6197517;23;20453;-96
2021/07/19 07:26:32;;;;;;;31.60;28.47;;;;;;;;;;6202374;23;20504;-95
2021/07/19 07:31:42;;;;;;;33.67;30.07;;;;;;;;;;6215034;22;20461;-96
2021/07/19 07:34:25;;;;;;;35.63;27.90;;;;;;;;;;6235476;23;20425;-96
2021/07/19 07:39:25;;;;;;;35.47;29.27;;;;;;;;;;6170034;23;20457;-96
2021/07/19 07:41:52;;;;;;;32.70;27.67;;;;;;;;;;6228440;23;20516;-96
2021/07/19 07:47:16;;;;;;;31.93;28.53;;;;;;;;;;6208362;23;20483;-95
2021/07/19 07:52:13;;;;;;;33.07;29.47;;;;;;;;;;6236461;23;20475;-96
2021/07/19 08:02:51;;;;;;;32.50;29.00;;;;;;;;;;6190552;23;20448;-96
2021/07/19 08:08:10;;;;;;;32.97;29.53;;;;;;;;;;6115469;23;20793;-96
2021/07/19 08:11:10;;;;;;;32.30;29.00;;;;;;;;;;6147306;23;20447;-96
2021/07/19 08:13:39;;;;;;;33.27;29.80;;;;;;;;;;6208634;23;20430;-95
2021/07/19 08:16:07;;;;;;;31.07;27.73;;;;;;;;;;6202580;23;20414;-96
2021/07/19 08:21:19;;;;;;;30.23;27.33;;;;;;;;;;6176744;23;20474;-96
2021/07/19 08:26:19;;;;;;;32.23;27.83;;;;;;;;;;6182332;23;20485;-96
2021/07/19 08:34:11;;;;;;;28.83;25.83;;;;;;;;;;6171054;23;20550;-96
2021/07/19 09:02:13;;;;;;;36.03;25.97;;;;;;;;;;6127498;23;20460;-96
2021/07/19 09:18:24;;;;;;;28.10;25.20;;;;;;;;;;6198713;22;20506;-96
2021/07/19 09:24:01;;;;;;;27.33;24.53;;;;;;;;;;6190073;23;20465;-96
2021/07/19 09:35:01;;;;;;;26.57;23.70;;;;;;;;;;6208170;23;20396;-96
2021/07/19 09:40:09;;;;;;;27.40;21.30;;;;;;;;;;6221738;22;20465;-96
2021/07/19 09:45:11;;;;;;;25.80;22.40;;;;;;;;;;6112220;23;20444;-96
2021/07/19 09:47:39;;;;;;;25.73;22.83;;;;;;;;;;6230268;23;20454;-94
2021/07/19 09:50:11;;;;;;;25.90;22.60;;;;;;;;;;6229155;23;20418;-96
2021/07/19 09:52:52;;;;;;;25.03;20.90;;;;;;;;;;6233249;22;20422;-96
2021/07/19 09:55:23;;;;;;;25.20;20.90;;;;;;;;;;6192493;22;20470;-95
2021/07/19 10:01:15;;;;;;;22.00;19.90;;;;;;;;;;6187009;23;20456;-96
2021/07/19 10:06:30;;;;;;;26.77;19.93;;;;;;;;;;6202000;23;20448;-95
2021/07/19 10:08:57;;;;;;;21.23;18.97;;;;;;;;;;6204458;23;20515;-96
2021/07/19 10:11:41;;;;;;;21.40;19.17;;;;;;;;;;6202878;23;20416;-96
2021/07/19 10:14:09;;;;;;;26.00;19.80;;;;;;;;;;6202249;23;20396;-96
2021/07/19 10:16:59;;;;;;;21.63;19.23;;;;;;;;;;6199269;22;20442;-96
2021/07/19 10:19:26;;;;;;;21.07;18.97;;;;;;;;;;6205409;22;20470;-95
2021/07/19 10:24:44;;;;;;;21.83;18.57;;;;;;;;;;6206142;23;20384;-96
2021/07/19 10:35:28;;;;;;;21.30;18.90;;;;;;;;;;6148086;23;20445;-96
2021/07/19 10:41:02;;;;;;;19.73;17.70;;;;;;;;;;6183647;23;20460;-95
2021/07/19 10:57:37;;;;;;;20.43;18.07;;;;;;;;;;6111018;22;20444;-96
2021/07/19 11:00:40;;;;;;;20.90;16.57;;;;;;;;;;6193484;23;21297;31
2021/07/19 11:03:09;;;;;;;19.50;15.20;;;;;;;;;;6115446;23;20422;-94
2021/07/19 11:05:42;;;;;;;19.17;16.50;;;;;;;;;;6117374;23;20441;-96
2021/07/19 11:08:28;;;;;;;18.00;16.17;;;;;;;;;;6121680;23;20434;-94
2021/07/19 11:19:07;;;;;;;20.07;16.17;;;;;;;;;;6167397;23;20471;-96
2021/07/19 11:35:41;;;;;;;9.80;8.80;;;;;;;;;;6182657;22;20459;-96
2021/07/19 11:43:49;;;;;;;11.17;10.00;;;;;;;;;;6198251;23;20451;-96
2021/07/19 11:49:36;;;;;;;11.10;10.10;;;;;;;;;;6207456;23;20431;-96
2021/07/19 11:52:08;;;;;;;10.23;9.43;;;;;;;;;;6201169;23;20894;-96
2021/07/19 11:54:35;;;;;;;14.07;12.70;;;;;;;;;;6200613;23;20422;-96
2021/07/19 11:57:02;;;;;;;18.27;16.33;;;;;;;;;;6199057;23;20469;-95
2021/07/19 11:59:29;;;;;;;17.73;16.10;;;;;;;;;;6200273;23;20412;-95
2021/07/19 12:01:57;;;;;;;18.27;16.50;;;;;;;;;;6199858;23;20412;-95
2021/07/19 12:04:34;;;;;;;17.60;16.00;;;;;;;;;;6206405;23;20419;-95
2021/07/19 12:07:01;;;;;;;17.40;15.67;;;;;;;;;;6203723;23;20471;-95
2021/07/19 12:09:39;;;;;;;19.30;17.30;;;;;;;;;;6202157;23;20457;-96
2021/07/19 12:12:07;;;;;;;21.57;16.10;;;;;;;;;;6202914;23;20415;-94
2021/07/19 12:14:34;;;;;;;16.03;14.53;;;;;;;;;;6199019;23;20420;-94
2021/07/19 12:17:01;;;;;;;16.70;15.30;;;;;;;;;;6197960;23;20419;-95
2021/07/19 12:22:04;;;;;;;17.90;16.13;;;;;;;;;;6198291;23;20458;-96
2021/07/19 12:24:33;;;;;;;16.93;15.43;;;;;;;;;;6197208;23;20407;-95
2021/07/19 12:27:15;;;;;;;15.80;14.27;;;;;;;;;;6192965;23;20456;-96
2021/07/19 12:29:43;;;;;;;16.10;14.60;;;;;;;;;;6171245;23;20447;-94
2021/07/19 12:32:11;;;;;;;16.27;14.53;;;;;;;;;;6188846;23;20443;-94
2021/07/19 12:34:41;;;;;;;18.03;15.20;;;;;;;;;;6190167;23;21404;-95
2021/07/19 12:37:10;;;;;;;17.57;14.40;;;;;;;;;;6188624;23;20419;-96
2021/07/19 12:42:24;;;;;;;16.70;14.97;;;;;;;;;;6202238;23;20459;-94
2021/07/19 12:44:52;;;;;;;17.73;15.97;;;;;;;;;;6203293;23;20442;-94
2021/07/19 12:47:20;;;;;;;18.47;14.60;;;;;;;;;;6176734;23;20463;-96
2021/07/19 12:49:47;;;;;;;14.70;13.40;;;;;;;;;;6199623;23;20503;-93
2021/07/19 12:52:16;;;;;;;14.53;13.33;;;;;;;;;;6203014;23;20407;-94
2021/07/19 12:54:59;;;;;;;14.20;12.80;;;;;;;;;;6202244;23;20448;-96
2021/07/19 13:02:46;;;;;;;13.30;12.30;;;;;;;;;;6139793;23;20431;-96
2021/07/19 13:05:14;;;;;;;11.90;10.83;;;;;;;;;;6170112;23;20827;-96
2021/07/19 13:07:47;;;;;;;10.53;9.63;;;;;;;;;;6174960;23;20428;-96
2021/07/19 13:10:15;;;;;;;9.27;7.63;;;;;;;;;;6178282;23;20483;-95
2021/07/19 13:23:47;;;;;;;13.87;12.50;;;;;;;;;;6145946;23;20493;-94
2021/07/19 13:26:17;;;;;;;12.87;11.67;;;;;;;;;;6200196;23;20431;-96
2021/07/19 13:31:51;;;;;;;11.03;10.03;;;;;;;;;;6152091;23;20463;-96
2021/07/19 13:37:03;;;;;;;13.43;12.17;;;;;;;;;;6176310;23;20455;-95
2021/07/19 13:39:34;;;;;;;15.07;13.67;;;;;;;;;;6172568;23;20791;-96
2021/07/19 13:45:35;;;;;;;15.10;13.90;;;;;;;;;;6148278;23;20454;-93
2021/07/19 13:50:44;;;;;;;97.77;16.70;;;;;;;;;;6201030;23;20443;-96
2021/07/19 13:53:11;;;;;;;10.00;9.20;;;;;;;;;;6193500;23;20530;-96
2021/07/19 13:58:42;;;;;;;10.90;9.47;;;;;;;;;;6169906;23;21356;-93
2021/07/19 14:01:12;;;;;;;10.20;9.40;;;;;;;;;;6228676;23;20470;-93
2021/07/19 14:06:33;;;;;;;11.00;9.90;;;;;;;;;;6241139;22;20663;-96
2021/07/19 14:09:02;;;;;;;10.60;9.40;;;;;;;;;;6234509;23;20433;-94
2021/07/19 14:14:09;;;;;;;11.90;8.87;;;;;;;;;;6227865;23;20477;-94
2021/07/19 14:19:28;;;;;;;21.23;13.60;;;;;;;;;;6238365;23;20442;-94
2021/07/19 14:22:04;;;;;;;19.80;15.00;;;;;;;;;;6232108;23;20410;-96
2021/07/19 14:24:34;;;;;;;18.20;14.50;;;;;;;;;;6226098;23;20454;-95
2021/07/19 14:29:50;;;;;;;17.20;14.93;;;;;;;;;;6230952;23;20457;-94
2021/07/19 14:32:19;;;;;;;16.20;14.47;;;;;;;;;;6236662;23;20406;-94
2021/07/19 14:35:15;;;;;;;15.80;14.17;;;;;;;;;;6236582;23;20426;-95
2021/07/19 14:38:03;;;;;;;15.03;13.63;;;;;;;;;;6237098;23;20393;-96
2021/07/19 14:40:36;;;;;;;19.43;15.13;;;;;;;;;;6227473;23;20464;-94
2021/07/19 14:51:34;;;;;;;21.63;13.37;;;;;;;;;;6235561;23;20450;-95
2021/07/19 14:56:44;;;;;;;20.50;14.20;;;;;;;;;;6190707;23;20454;-95
2021/07/19 15:04:29;;;;;;;14.47;13.13;;;;;;;;;;6237050;23;20402;-96
2021/07/19 15:07:06;;;;;;;14.73;12.77;;;;;;;;;;6225705;23;20493;-96
2021/07/19 15:20:52;;;;;;;17.90;12.40;;;;;;;;;;6213496;23;20454;-96
2021/07/19 15:23:35;;;;;;;13.87;12.67;;;;;;;;;;6236808;23;20402;-95
2021/07/19 15:26:10;;;;;;;12.93;11.83;;;;;;;;;;6151011;23;20406;-94
2021/07/19 15:28:45;;;;;;;13.67;12.47;;;;;;;;;;6186472;23;20498;-96
2021/07/19 15:31:14;;;;;;;14.57;13.07;;;;;;;;;;6180404;23;20399;-96
2021/07/19 15:33:56;;;;;;;12.87;11.77;;;;;;;;;;6197193;23;20464;-96
2021/07/19 15:39:02;;;;;;;14.40;13.10;;;;;;;;;;6206678;23;20435;-94
2021/07/19 15:44:21;;;;;;;14.20;13.10;;;;;;;;;;6169966;22;20466;-96
2021/07/19 15:47:07;;;;;;;14.97;13.60;;;;;;;;;;6210909;23;20487;-96
2021/07/19 15:52:25;;;;;;;15.37;13.93;;;;;;;;;;6205389;23;20473;-96
2021/07/19 16:07:20;;;;;;;14.47;13.00;;;;;;;;;;6165708;23;20440;-96
2021/07/19 16:09:46;;;;;;;14.70;13.40;;;;;;;;;;6170150;23;20534;-96
2021/07/19 16:12:16;;;;;;;12.40;11.30;;;;;;;;;;6205483;23;20410;-94
2021/07/19 16:14:57;;;;;;;12.30;11.00;;;;;;;;;;6233231;23;20412;-96
2021/07/19 16:17:24;;;;;;;11.73;10.63;;;;;;;;;;6223633;23;20417;-96
2021/07/19 16:20:03;;;;;;;10.60;9.70;;;;;;;;;;6223890;23;20411;-96
2021/07/19 16:22:31;;;;;;;11.53;9.50;;;;;;;;;;6227548;23;20445;-96
2021/07/19 16:25:11;;;;;;;11.53;9.60;;;;;;;;;;6232924;22;20418;-96
2021/07/19 16:27:41;;;;;;;12.13;11.03;;;;;;;;;;6225561;23;20956;-95
2021/07/19 16:30:10;;;;;;;10.93;9.93;;;;;;;;;;6225901;23;20940;-93
2021/07/19 16:32:42;;;;;;;13.43;10.53;;;;;;;;;;6227832;23;20410;-96
2021/07/19 16:35:12;;;;;;;11.47;10.27;;;;;;;;;;6231075;23;20430;-94
2021/07/19 16:37:40;;;;;;;11.27;10.10;;;;;;;;;;6190169;23;20482;-96
2021/07/19 16:51:23;;;;;;;13.37;10.40;;;;;;;;;;5065380;22;1437021;-96
2021/07/19 16:53:57;;;;;;;11.77;10.57;;;;;;;;;;5040546;23;20246;-96
2021/07/19 16:56:24;;;;;;;15.23;11.87;;;;;;;;;;5050768;28;20458;-96
2021/07/19 16:58:50;;;;;;;11.80;10.60;;;;;;;;;;5304954;22;20494;-96
2021/07/19 17:01:17;;;;;;;11.67;10.57;;;;;;;;;;5046430;28;20486;-96
2021/07/19 17:03:43;;;;;;;11.10;10.00;;;;;;;;;;5222212;23;20482;-96
2021/07/19 17:06:13;;;;;;;12.63;10.17;;;;;;;;;;5057702;28;20493;-96
2021/07/19 17:08:41;;;;;;;10.50;9.37;;;;;;;;;;5064151;28;20544;-96
2021/07/19 17:11:16;;;;;;;10.80;9.80;;;;;;;;;;5040464;28;20458;-96
2021/07/19 17:13:42;;;;;;;10.47;9.57;;;;;;;;;;5048812;28;20888;-96
2021/07/19 17:16:09;;;;;;;10.60;9.60;;;;;;;;;;5040757;28;20959;-96
2021/07/19 17:18:35;;;;;;;12.00;10.43;;;;;;;;;;5053495;28;20473;-96
2021/07/19 17:21:04;;;;;;;13.27;10.00;;;;;;;;;;5050303;28;20715;-96
2021/07/19 17:23:31;;;;;;;11.73;10.07;;;;;;;;;;5039826;28;20470;-96
2021/07/19 17:25:59;;;;;;;12.53;11.37;;;;;;;;;;5039805;28;20534;-96
2021/07/19 17:28:26;;;;;;;11.40;10.30;;;;;;;;;;5047494;28;20465;-96
2021/07/19 17:30:55;;;;;;;11.03;9.93;;;;;;;;;;5057893;28;20530;-95
2021/07/19 17:33:21;;;;;;;12.43;10.80;;;;;;;;;;5042196;28;20465;-96
2021/07/19 17:38:30;;;;;;;13.53;11.30;;;;;;;;;;5042293;28;20456;-96
2021/07/19 17:41:01;;;;;;;13.53;11.87;;;;;;;;;;5041901;28;20517;-96
2021/07/19 17:43:34;;;;;;;15.33;11.90;;;;;;;;;;5030991;28;20451;-96
2021/07/19 17:46:13;;;;;;;13.67;11.90;;;;;;;;;;5075258;23;21227;-95
2021/07/19 17:48:41;;;;;;;13.27;11.80;;;;;;;;;;5043147;28;20483;-96
2021/07/19 17:51:13;;;;;;;14.20;11.90;;;;;;;;;;5033368;28;20461;-96
2021/07/19 17:53:44;;;;;;;14.93;13.37;;;;;;;;;;5011758;28;20494;-96
2021/07/19 17:56:12;;;;;;;17.87;13.20;;;;;;;;;;5033668;28;20456;-96
2021/07/19 17:58:43;;;;;;;15.67;13.10;;;;;;;;;;5032650;28;20486;-96
2021/07/19 18:01:09;;;;;;;16.83;13.83;;;;;;;;;;5028606;28;20491;-96
2021/07/19 18:03:40;;;;;;;14.70;13.20;;;;;;;;;;5027887;28;20462;-96
2021/07/19 18:06:06;;;;;;;14.63;13.07;;;;;;;;;;5027229;28;20471;-96
2021/07/19 18:08:35;;;;;;;14.83;12.50;;;;;;;;;;5028995;28;20487;-96
2021/07/19 18:11:03;;;;;;;15.37;12.83;;;;;;;;;;5029153;28;20470;-95
2021/07/19 18:13:29;;;;;;;15.77;13.30;;;;;;;;;;5021505;28;20451;-96
2021/07/19 18:15:57;;;;;;;15.30;12.70;;;;;;;;;;5026788;28;20447;-96
2021/07/19 18:18:24;;;;;;;16.90;13.20;;;;;;;;;;5025396;28;20451;-96
2021/07/19 18:20:51;;;;;;;14.17;12.77;;;;;;;;;;5033111;28;20487;-96
2021/07/19 18:23:26;;;;;;;14.80;12.77;;;;;;;;;;5034011;28;20443;-96
2021/07/19 18:26:03;;;;;;;15.20;13.03;;;;;;;;;;5033688;28;20461;-95
2021/07/19 18:31:16;;;;;;;14.53;13.07;;;;;;;;;;5025224;28;20478;-96
2021/07/19 18:33:47;;;;;;;17.17;13.17;;;;;;;;;;5030303;28;20452;-96
2021/07/19 18:38:55;;;;;;;15.27;13.67;;;;;;;;;;5030267;28;20462;-95
2021/07/19 18:41:24;;;;;;;15.60;14.00;;;;;;;;;;5024330;28;20575;-96
2021/07/19 18:43:50;;;;;;;15.57;14.07;;;;;;;;;;5026994;28;20514;-96
2021/07/19 18:46:19;;;;;;;17.03;14.03;;;;;;;;;;5025961;28;20487;-96
2021/07/19 18:49:07;;;;;;;14.63;13.20;;;;;;;;;;5481969;23;20559;-96
2021/07/19 18:51:34;;;;;;;17.00;15.20;;;;;;;;;;5012116;28;20436;-96
2021/07/19 18:54:00;;;;;;;20.30;15.97;;;;;;;;;;5304305;23;20471;-96
2021/07/19 18:56:27;;;;;;;18.73;16.17;;;;;;;;;;5035993;28;20455;-96
2021/07/19 18:58:55;;;;;;;18.93;15.37;;;;;;;;;;5028603;28;20448;-96
2021/07/19 19:01:25;;;;;;;19.70;15.90;;;;;;;;;;5262346;22;20535;-95
2021/07/19 19:06:31;;;;;;;17.97;16.00;;;;;;;;;;5272551;23;20524;-93
2021/07/19 19:08:58;;;;;;;22.80;16.10;;;;;;;;;;4993305;28;20456;-92
2021/07/19 19:11:32;;;;;;;18.10;15.30;;;;;;;;;;4997000;28;20443;-92
2021/07/19 19:13:59;;;;;;;15.57;14.07;;;;;;;;;;5003233;28;20453;-92
2021/07/19 19:16:27;;;;;;;16.20;14.50;;;;;;;;;;4998004;28;20454;-96